QFA337 YMHB-YMML
Flight info
| Callsign | QFA337 |
|---|---|
| Flight time | 1h 5m |
| Altitude | 36000 |
| Route | TASUM H111 LT H215 RAZZI W687 ML |
| Aircraft | B738/M-SABDFGRVYL/LB2 |
Departure
| Time | 2026-05-03 23:21 |
|---|---|
| Airport | Hobart International Airport (YMHB) |
Arrival
| Time | 2026-05-04 00:26 |
|---|---|
| Airport | Melbourne Airport (YMML) |
| Time | Latitude | Longitude | Altitude | Speed | Heading |
|---|---|---|---|---|---|
| 2026-05-03 23:18 | -42.83942 | 147.51624 | 24 ft | 23 kts | 134° |
| 2026-05-03 23:18 | -42.84037 | 147.51753 | 25 ft | 29 kts | 134° |
| 2026-05-03 23:18 | -42.84211 | 147.51987 | 28 ft | 32 kts | 135° |
| 2026-05-03 23:18 | -42.84371 | 147.52205 | 28 ft | 31 kts | 135° |
| 2026-05-03 23:19 | -42.84547 | 147.52335 | 29 ft | 20 kts | 148° |
| 2026-05-03 23:19 | -42.84577 | 147.52419 | 29 ft | 8 kts | 53° |
| 2026-05-03 23:19 | -42.84531 | 147.52421 | 28 ft | 5 kts | 315° |
| 2026-05-03 23:19 | -42.84530 | 147.52419 | 28 ft | 0 kts | 315° |
| 2026-05-03 23:20 | -42.84521 | 147.52408 | 28 ft | 9 kts | 315° |
| 2026-05-03 23:20 | -42.84282 | 147.52085 | 28 ft | 86 kts | 317° |
| 2026-05-03 23:21 | -42.83689 | 147.51280 | 22 ft | 151 kts | 315° |
| 2026-05-03 23:21 | -42.82874 | 147.50203 | 546 ft | 165 kts | 315° |
| 2026-05-03 23:21 | -42.82112 | 147.49154 | 1473 ft | 159 kts | 315° |
| 2026-05-03 23:21 | -42.81318 | 147.48041 | 2030 ft | 171 kts | 315° |
| 2026-05-03 23:22 | -42.79557 | 147.45666 | 3088 ft | 197 kts | 317° |
| 2026-05-03 23:22 | -42.78538 | 147.44297 | 3646 ft | 212 kts | 316° |
| 2026-05-03 23:22 | -42.77462 | 147.42820 | 4129 ft | 234 kts | 315° |
| 2026-05-03 23:23 | -42.76295 | 147.41213 | 4813 ft | 245 kts | 315° |
| 2026-05-03 23:23 | -42.75078 | 147.39540 | 5550 ft | 255 kts | 314° |
| 2026-05-03 23:23 | -42.73834 | 147.37835 | 6425 ft | 258 kts | 314° |
| 2026-05-03 23:23 | -42.72582 | 147.36120 | 7347 ft | 258 kts | 315° |
| 2026-05-03 23:24 | -42.71323 | 147.34396 | 8213 ft | 262 kts | 316° |
| 2026-05-03 23:24 | -42.70041 | 147.32643 | 9051 ft | 265 kts | 316° |
| 2026-05-03 23:24 | -42.68750 | 147.30880 | 9910 ft | 267 kts | 317° |
| 2026-05-03 23:24 | -42.67429 | 147.29078 | 10530 ft | 278 kts | 317° |
| 2026-05-03 23:25 | -42.66036 | 147.27183 | 11040 ft | 292 kts | 317° |
| 2026-05-03 23:25 | -42.64567 | 147.25184 | 11499 ft | 307 kts | 317° |
| 2026-05-03 23:25 | -42.63083 | 147.23184 | 11926 ft | 322 kts | 318° |
| 2026-05-03 23:25 | -42.61477 | 147.21375 | 12517 ft | 328 kts | 327° |
| 2026-05-03 23:26 | -42.59472 | 147.20090 | 13181 ft | 332 kts | 345° |
| 2026-05-03 23:26 | -42.57191 | 147.19653 | 13956 ft | 335 kts | 359° |
| 2026-05-03 23:26 | -42.54875 | 147.19935 | 14728 ft | 338 kts | 9° |
| 2026-05-03 23:26 | -42.52609 | 147.20822 | 15468 ft | 344 kts | 22° |
| 2026-05-03 23:27 | -42.50520 | 147.22416 | 16202 ft | 349 kts | 30° |
| 2026-05-03 23:27 | -42.47840 | 147.24910 | 17138 ft | 355 kts | 32° |
| 2026-05-03 23:27 | -42.46518 | 147.26208 | 17648 ft | 355 kts | 32° |
| 2026-05-03 23:27 | -42.44515 | 147.28186 | 18286 ft | 360 kts | 32° |
| 2026-05-03 23:28 | -42.42490 | 147.30167 | 19025 ft | 361 kts | 32° |
| 2026-05-03 23:28 | -42.40451 | 147.32131 | 19720 ft | 362 kts | 31° |
| 2026-05-03 23:28 | -42.38393 | 147.34072 | 20469 ft | 361 kts | 30° |
| 2026-05-03 23:28 | -42.36266 | 147.35863 | 21103 ft | 360 kts | 24° |
| 2026-05-03 23:29 | -42.33185 | 147.37527 | 21886 ft | 359 kts | 12° |
| 2026-05-03 23:29 | -42.30757 | 147.38172 | 22551 ft | 357 kts | 5° |
| 2026-05-03 23:29 | -42.29117 | 147.38375 | 22989 ft | 356 kts | 1° |
| 2026-05-03 23:29 | -42.26638 | 147.38416 | 23517 ft | 359 kts | 356° |
| 2026-05-03 23:30 | -42.24164 | 147.38096 | 24128 ft | 358 kts | 352° |
| 2026-05-03 23:30 | -42.21712 | 147.37558 | 24709 ft | 359 kts | 349° |
| 2026-05-03 23:30 | -42.19262 | 147.36934 | 25217 ft | 361 kts | 349° |
| 2026-05-03 23:30 | -42.16810 | 147.36290 | 25821 ft | 359 kts | 349° |
| 2026-05-03 23:31 | -42.14341 | 147.35653 | 26219 ft | 363 kts | 349° |
| 2026-05-03 23:31 | -42.11860 | 147.35028 | 26670 ft | 365 kts | 349° |
| 2026-05-03 23:31 | -42.09364 | 147.34412 | 27172 ft | 366 kts | 349° |
| 2026-05-03 23:31 | -42.06860 | 147.33802 | 27593 ft | 368 kts | 349° |
| 2026-05-03 23:32 | -42.04343 | 147.33193 | 28053 ft | 369 kts | 349° |
| 2026-05-03 23:32 | -42.01815 | 147.32586 | 28422 ft | 372 kts | 349° |
| 2026-05-03 23:32 | -41.99274 | 147.31978 | 28894 ft | 372 kts | 349° |
| 2026-05-03 23:32 | -41.96716 | 147.31367 | 29223 ft | 375 kts | 349° |
| 2026-05-03 23:33 | -41.94145 | 147.30755 | 29610 ft | 377 kts | 350° |
| 2026-05-03 23:33 | -41.91573 | 147.30142 | 30033 ft | 377 kts | 350° |
| 2026-05-03 23:33 | -41.88977 | 147.29523 | 30370 ft | 380 kts | 349° |
| 2026-05-03 23:33 | -41.86371 | 147.28903 | 30750 ft | 382 kts | 349° |
| 2026-05-03 23:34 | -41.83743 | 147.28278 | 31051 ft | 386 kts | 349° |
| 2026-05-03 23:34 | -41.81117 | 147.27655 | 31602 ft | 383 kts | 349° |
| 2026-05-03 23:34 | -41.78505 | 147.27035 | 32145 ft | 380 kts | 350° |
| 2026-05-03 23:34 | -41.75919 | 147.26422 | 32698 ft | 377 kts | 349° |
| 2026-05-03 23:35 | -41.72491 | 147.25610 | 33255 ft | 376 kts | 350° |
| 2026-05-03 23:35 | -41.70779 | 147.25205 | 33521 ft | 375 kts | 350° |
| 2026-05-03 23:35 | -41.68311 | 147.24621 | 33872 ft | 375 kts | 350° |
| 2026-05-03 23:35 | -41.65746 | 147.24015 | 34225 ft | 374 kts | 350° |
| 2026-05-03 23:36 | -41.63184 | 147.23410 | 34477 ft | 376 kts | 350° |
| 2026-05-03 23:36 | -41.60603 | 147.22801 | 34737 ft | 377 kts | 349° |
| 2026-05-03 23:36 | -41.58024 | 147.22193 | 34993 ft | 378 kts | 349° |
| 2026-05-03 23:36 | -41.55452 | 147.21501 | 35231 ft | 378 kts | 346° |
| 2026-05-03 23:37 | -41.52925 | 147.20530 | 35503 ft | 379 kts | 342° |
| 2026-05-03 23:37 | -41.50450 | 147.19329 | 35758 ft | 379 kts | 340° |
| 2026-05-03 23:37 | -41.48003 | 147.18022 | 35897 ft | 381 kts | 339° |
| 2026-05-03 23:37 | -41.45551 | 147.16662 | 35904 ft | 382 kts | 338° |
| 2026-05-03 23:38 | -41.40670 | 147.13944 | 35904 ft | 379 kts | 339° |
| 2026-05-03 23:38 | -41.35802 | 147.11269 | 35898 ft | 380 kts | 339° |
| 2026-05-03 23:39 | -41.30904 | 147.08608 | 35896 ft | 380 kts | 339° |
| 2026-05-03 23:39 | -41.25998 | 147.05955 | 35902 ft | 381 kts | 339° |
| 2026-05-03 23:40 | -41.20271 | 147.02869 | 35907 ft | 381 kts | 339° |
| 2026-05-03 23:40 | -41.16176 | 147.00665 | 35901 ft | 382 kts | 339° |
| 2026-05-03 23:41 | -41.11265 | 146.98027 | 35898 ft | 382 kts | 339° |
| 2026-05-03 23:41 | -41.06332 | 146.95383 | 35901 ft | 383 kts | 339° |
| 2026-05-03 23:42 | -41.01403 | 146.92740 | 35900 ft | 384 kts | 338° |
| 2026-05-03 23:42 | -40.96465 | 146.90098 | 35905 ft | 384 kts | 338° |
| 2026-05-03 23:43 | -40.91523 | 146.87460 | 35898 ft | 383 kts | 338° |
| 2026-05-03 23:43 | -40.86586 | 146.84829 | 35907 ft | 384 kts | 339° |
| 2026-05-03 23:44 | -40.84330 | 146.83627 | 35904 ft | 384 kts | 339° |
| 2026-05-03 23:44 | -40.79372 | 146.80989 | 35900 ft | 385 kts | 338° |
| 2026-05-03 23:45 | -40.74411 | 146.78354 | 35905 ft | 384 kts | 339° |
| 2026-05-03 23:45 | -40.69454 | 146.75728 | 35901 ft | 384 kts | 339° |
| 2026-05-03 23:46 | -40.64498 | 146.73106 | 35899 ft | 385 kts | 338° |
| 2026-05-03 23:46 | -40.59532 | 146.70484 | 35897 ft | 385 kts | 339° |
| 2026-05-03 23:47 | -40.54574 | 146.67869 | 35895 ft | 384 kts | 338° |
| 2026-05-03 23:47 | -40.49621 | 146.65259 | 35892 ft | 384 kts | 338° |
| 2026-05-03 23:48 | -40.44727 | 146.62687 | 35896 ft | 385 kts | 338° |
| 2026-05-03 23:48 | -40.39756 | 146.60077 | 35903 ft | 385 kts | 338° |
| 2026-05-03 23:49 | -40.34794 | 146.57476 | 35904 ft | 385 kts | 338° |
| 2026-05-03 23:49 | -40.29836 | 146.54881 | 35900 ft | 384 kts | 338° |
| 2026-05-03 23:50 | -40.24868 | 146.52285 | 35893 ft | 384 kts | 338° |
| 2026-05-03 23:50 | -40.19910 | 146.49698 | 35898 ft | 384 kts | 338° |
| 2026-05-03 23:51 | -40.14939 | 146.47110 | 35896 ft | 385 kts | 338° |
| 2026-05-03 23:51 | -40.10053 | 146.44568 | 35893 ft | 385 kts | 338° |
| 2026-05-03 23:52 | -40.05088 | 146.41988 | 35899 ft | 385 kts | 338° |
| 2026-05-03 23:52 | -40.00122 | 146.39413 | 35863 ft | 384 kts | 338° |
| 2026-05-03 23:53 | -39.95143 | 146.36844 | 35883 ft | 385 kts | 338° |
| 2026-05-03 23:53 | -39.90180 | 146.34295 | 35896 ft | 384 kts | 338° |
| 2026-05-03 23:54 | -39.85194 | 146.31734 | 35883 ft | 385 kts | 338° |
| 2026-05-03 23:54 | -39.80213 | 146.29180 | 35900 ft | 386 kts | 338° |
| 2026-05-03 23:55 | -39.75235 | 146.26630 | 35880 ft | 384 kts | 338° |
| 2026-05-03 23:55 | -39.70255 | 146.24085 | 35901 ft | 387 kts | 338° |
| 2026-05-03 23:56 | -39.65269 | 146.21542 | 35879 ft | 385 kts | 338° |
| 2026-05-03 23:56 | -39.60286 | 146.19003 | 35897 ft | 386 kts | 338° |
| 2026-05-03 23:57 | -39.55294 | 146.16462 | 35894 ft | 385 kts | 338° |
| 2026-05-03 23:57 | -39.50303 | 146.13925 | 35893 ft | 385 kts | 338° |
| 2026-05-03 23:58 | -39.45331 | 146.11403 | 35882 ft | 384 kts | 337° |
| 2026-05-03 23:58 | -39.40344 | 146.08878 | 35900 ft | 386 kts | 337° |
| 2026-05-03 23:59 | -39.35346 | 146.06350 | 35879 ft | 385 kts | 337° |
| 2026-05-03 23:59 | -39.30352 | 146.03829 | 35885 ft | 385 kts | 338° |
| 2026-05-04 00:00 | -39.25356 | 146.01311 | 35892 ft | 381 kts | 337° |
| 2026-05-04 00:00 | -39.20461 | 145.98847 | 35540 ft | 374 kts | 337° |
| 2026-05-04 00:01 | -39.18046 | 145.97632 | 35045 ft | 372 kts | 337° |
| 2026-05-04 00:01 | -39.15645 | 145.96424 | 34436 ft | 372 kts | 338° |
| 2026-05-04 00:01 | -39.13237 | 145.95212 | 33787 ft | 373 kts | 338° |
| 2026-05-04 00:01 | -39.10917 | 145.94047 | 33142 ft | 374 kts | 339° |
| 2026-05-04 00:02 | -39.08486 | 145.92829 | 32431 ft | 376 kts | 338° |
| 2026-05-04 00:02 | -39.06054 | 145.91611 | 31711 ft | 377 kts | 339° |
| 2026-05-04 00:02 | -39.03623 | 145.90395 | 31188 ft | 373 kts | 338° |
| 2026-05-04 00:02 | -39.01219 | 145.89194 | 30723 ft | 368 kts | 338° |
| 2026-05-04 00:03 | -38.98854 | 145.88011 | 30248 ft | 366 kts | 338° |
| 2026-05-04 00:03 | -38.96468 | 145.86819 | 29754 ft | 370 kts | 338° |
| 2026-05-04 00:03 | -38.94073 | 145.85624 | 29255 ft | 369 kts | 338° |
| 2026-05-04 00:03 | -38.91694 | 145.84436 | 28765 ft | 364 kts | 338° |
| 2026-05-04 00:04 | -38.89354 | 145.83270 | 28287 ft | 358 kts | 338° |
| 2026-05-04 00:04 | -38.87049 | 145.82121 | 27818 ft | 354 kts | 338° |
| 2026-05-04 00:04 | -38.84773 | 145.80989 | 27344 ft | 349 kts | 338° |
| 2026-05-04 00:04 | -38.82514 | 145.79866 | 26888 ft | 349 kts | 338° |
| 2026-05-04 00:05 | -38.80241 | 145.78736 | 26409 ft | 354 kts | 338° |
| 2026-05-04 00:05 | -38.78604 | 145.77923 | 26064 ft | 353 kts | 338° |
| 2026-05-04 00:05 | -38.77577 | 145.77412 | 25849 ft | 350 kts | 338° |
| 2026-05-04 00:05 | -38.75325 | 145.76295 | 25377 ft | 346 kts | 338° |
| 2026-05-04 00:06 | -38.73098 | 145.75191 | 24906 ft | 341 kts | 337° |
| 2026-05-04 00:06 | -38.70903 | 145.74102 | 24439 ft | 336 kts | 337° |
| 2026-05-04 00:06 | -38.68741 | 145.73031 | 23982 ft | 332 kts | 337° |
| 2026-05-04 00:06 | -38.66583 | 145.71962 | 23523 ft | 334 kts | 337° |
| 2026-05-04 00:07 | -38.64408 | 145.70885 | 23053 ft | 337 kts | 337° |
| 2026-05-04 00:07 | -38.62235 | 145.69811 | 22571 ft | 333 kts | 337° |
| 2026-05-04 00:07 | -38.60088 | 145.68750 | 22108 ft | 328 kts | 337° |
| 2026-05-04 00:07 | -38.57981 | 145.67710 | 21650 ft | 324 kts | 337° |
| 2026-05-04 00:08 | -38.55892 | 145.66679 | 21212 ft | 322 kts | 337° |
| 2026-05-04 00:08 | -38.53794 | 145.65643 | 20757 ft | 327 kts | 337° |
| 2026-05-04 00:08 | -38.51667 | 145.64593 | 20286 ft | 327 kts | 337° |
| 2026-05-04 00:08 | -38.49572 | 145.63536 | 19826 ft | 322 kts | 335° |
| 2026-05-04 00:09 | -38.47614 | 145.62220 | 19382 ft | 317 kts | 326° |
| 2026-05-04 00:09 | -38.45948 | 145.60425 | 18932 ft | 314 kts | 315° |
| 2026-05-04 00:09 | -38.44504 | 145.58307 | 18478 ft | 319 kts | 311° |
| 2026-05-04 00:09 | -38.43122 | 145.56076 | 18024 ft | 322 kts | 310° |
| 2026-05-04 00:10 | -38.41769 | 145.53829 | 17566 ft | 318 kts | 309° |
| 2026-05-04 00:10 | -38.40430 | 145.51615 | 17088 ft | 314 kts | 310° |
| 2026-05-04 00:10 | -38.39099 | 145.49440 | 16634 ft | 310 kts | 309° |
| 2026-05-04 00:10 | -38.37778 | 145.47303 | 16196 ft | 308 kts | 310° |
| 2026-05-04 00:11 | -38.36439 | 145.45150 | 15745 ft | 314 kts | 310° |
| 2026-05-04 00:11 | -38.35087 | 145.42982 | 15276 ft | 312 kts | 309° |
| 2026-05-04 00:11 | -38.33745 | 145.40831 | 14824 ft | 308 kts | 309° |
| 2026-05-04 00:11 | -38.32423 | 145.38709 | 14367 ft | 305 kts | 309° |
| 2026-05-04 00:12 | -38.31117 | 145.36613 | 13931 ft | 303 kts | 309° |
| 2026-05-04 00:12 | -38.29794 | 145.34495 | 13477 ft | 309 kts | 310° |
| 2026-05-04 00:12 | -38.28459 | 145.32361 | 13014 ft | 307 kts | 310° |
| 2026-05-04 00:12 | -38.27142 | 145.30255 | 12567 ft | 304 kts | 310° |
| 2026-05-04 00:13 | -38.25837 | 145.28168 | 12114 ft | 301 kts | 310° |
| 2026-05-04 00:13 | -38.24547 | 145.26105 | 11672 ft | 297 kts | 310° |
| 2026-05-04 00:13 | -38.23271 | 145.24066 | 11248 ft | 294 kts | 310° |
| 2026-05-04 00:13 | -38.22003 | 145.22044 | 10809 ft | 292 kts | 309° |
| 2026-05-04 00:14 | -38.20757 | 145.20056 | 10508 ft | 284 kts | 309° |
| 2026-05-04 00:14 | -38.19548 | 145.18128 | 10338 ft | 273 kts | 309° |
| 2026-05-04 00:14 | -38.18395 | 145.16289 | 10244 ft | 260 kts | 309° |
| 2026-05-04 00:14 | -38.17296 | 145.14538 | 10144 ft | 248 kts | 310° |
| 2026-05-04 00:15 | -38.16239 | 145.12855 | 10025 ft | 243 kts | 309° |
| 2026-05-04 00:15 | -38.15179 | 145.11170 | 9723 ft | 246 kts | 310° |
| 2026-05-04 00:15 | -38.14115 | 145.09480 | 9384 ft | 244 kts | 310° |
| 2026-05-04 00:15 | -38.13065 | 145.07811 | 9067 ft | 241 kts | 310° |
| 2026-05-04 00:16 | -38.12032 | 145.06174 | 8804 ft | 237 kts | 310° |
| 2026-05-04 00:16 | -38.11025 | 145.04586 | 8336 ft | 241 kts | 310° |
| 2026-05-04 00:16 | -38.09978 | 145.02938 | 7992 ft | 239 kts | 310° |
| 2026-05-04 00:16 | -38.08947 | 145.01312 | 7683 ft | 235 kts | 311° |
| 2026-05-04 00:17 | -38.07928 | 144.99706 | 7376 ft | 232 kts | 311° |
| 2026-05-04 00:17 | -38.06924 | 144.98124 | 7078 ft | 229 kts | 311° |
| 2026-05-04 00:17 | -38.05932 | 144.96562 | 6787 ft | 226 kts | 311° |
| 2026-05-04 00:17 | -38.04979 | 144.95064 | 6500 ft | 223 kts | 311° |
| 2026-05-04 00:18 | -38.04014 | 144.93546 | 6213 ft | 220 kts | 312° |
| 2026-05-04 00:18 | -38.03060 | 144.92048 | 5949 ft | 220 kts | 312° |
| 2026-05-04 00:18 | -38.02000 | 144.90680 | 5798 ft | 212 kts | 326° |
| 2026-05-04 00:18 | -38.00673 | 144.90004 | 5621 ft | 206 kts | 348° |
| 2026-05-04 00:19 | -37.99242 | 144.89801 | 5358 ft | 210 kts | 351° |
| 2026-05-04 00:19 | -37.97778 | 144.89584 | 5077 ft | 212 kts | 349° |
| 2026-05-04 00:19 | -37.96338 | 144.89322 | 4897 ft | 205 kts | 348° |
| 2026-05-04 00:19 | -37.94925 | 144.89049 | 4511 ft | 208 kts | 348° |
| 2026-05-04 00:20 | -37.93489 | 144.88773 | 4152 ft | 209 kts | 349° |
| 2026-05-04 00:20 | -37.92050 | 144.88502 | 3843 ft | 208 kts | 349° |
| 2026-05-04 00:20 | -37.90634 | 144.88237 | 3647 ft | 202 kts | 349° |
| 2026-05-04 00:20 | -37.89271 | 144.87983 | 3511 ft | 194 kts | 349° |
| 2026-05-04 00:21 | -37.87951 | 144.87734 | 3373 ft | 187 kts | 349° |
| 2026-05-04 00:21 | -37.86696 | 144.87499 | 3303 ft | 177 kts | 349° |
| 2026-05-04 00:21 | -37.85507 | 144.87275 | 3186 ft | 168 kts | 349° |
| 2026-05-04 00:21 | -37.84376 | 144.87062 | 3078 ft | 159 kts | 349° |
| 2026-05-04 00:22 | -37.83314 | 144.86863 | 2937 ft | 151 kts | 350° |
| 2026-05-04 00:22 | -37.82276 | 144.86655 | 2635 ft | 152 kts | 348° |
| 2026-05-04 00:22 | -37.81239 | 144.86407 | 2437 ft | 147 kts | 350° |
| 2026-05-04 00:22 | -37.80256 | 144.86209 | 2463 ft | 143 kts | 351° |
| 2026-05-04 00:23 | -37.79262 | 144.86027 | 2412 ft | 145 kts | 351° |
| 2026-05-04 00:23 | -37.78263 | 144.85840 | 2246 ft | 144 kts | 351° |
| 2026-05-04 00:23 | -37.77266 | 144.85655 | 2058 ft | 144 kts | 352° |
| 2026-05-04 00:23 | -37.76275 | 144.85477 | 1891 ft | 142 kts | 352° |
| 2026-05-04 00:24 | -37.75305 | 144.85299 | 1656 ft | 138 kts | 353° |
| 2026-05-04 00:24 | -37.74382 | 144.85134 | 1547 ft | 131 kts | 353° |
| 2026-05-04 00:24 | -37.73465 | 144.84972 | 1276 ft | 131 kts | 354° |
| 2026-05-04 00:24 | -37.72578 | 144.84809 | 1154 ft | 130 kts | 353° |
| 2026-05-04 00:25 | -37.71665 | 144.84635 | 1059 ft | 134 kts | 354° |
| 2026-05-04 00:25 | -37.70721 | 144.84459 | 815 ft | 139 kts | 354° |
| 2026-05-04 00:25 | -37.69776 | 144.84298 | 609 ft | 135 kts | 355° |
| 2026-05-04 00:25 | -37.68846 | 144.84139 | 425 ft | 134 kts | 355° |
| 2026-05-04 00:26 | -37.67939 | 144.83984 | 357 ft | 115 kts | 351° |
| 2026-05-04 00:26 | -37.67389 | 144.83881 | 372 ft | 59 kts | 352° |
| 2026-05-04 00:26 | -37.67095 | 144.83829 | 382 ft | 23 kts | 358° |
| 2026-05-04 00:26 | -37.66950 | 144.83859 | 387 ft | 18 kts | 18° |
| 2026-05-04 00:27 | -37.66840 | 144.83910 | 390 ft | 15 kts | 20° |
| 2026-05-04 00:27 | -37.66749 | 144.83959 | 393 ft | 12 kts | 22° |
| 2026-05-04 00:27 | -37.66675 | 144.83996 | 395 ft | 10 kts | 21° |
| 2026-05-04 00:27 | -37.66618 | 144.84023 | 397 ft | 7 kts | 20° |
| 2026-05-04 00:28 | -37.66569 | 144.84062 | 398 ft | 11 kts | 51° |
| 2026-05-04 00:28 | -37.66542 | 144.84183 | 397 ft | 16 kts | 80° |
| 2026-05-04 00:28 | -37.66521 | 144.84322 | 398 ft | 15 kts | 81° |
| 2026-05-04 00:28 | -37.66510 | 144.84453 | 398 ft | 14 kts | 83° |
| 2026-05-04 00:29 | -37.66496 | 144.84571 | 400 ft | 12 kts | 79° |
| 2026-05-04 00:29 | -37.66484 | 144.84664 | 402 ft | 9 kts | 81° |
| 2026-05-04 00:29 | -37.66474 | 144.84747 | 404 ft | 9 kts | 81° |
| 2026-05-04 00:29 | -37.66463 | 144.84841 | 406 ft | 11 kts | 82° |
| 2026-05-04 00:30 | -37.66451 | 144.84946 | 408 ft | 12 kts | 83° |
| 2026-05-04 00:30 | -37.66476 | 144.85036 | 408 ft | 10 kts | 143° |
| 2026-05-04 00:30 | -37.66553 | 144.85058 | 408 ft | 11 kts | 172° |
| 2026-05-04 00:30 | -37.66626 | 144.85071 | 408 ft | 9 kts | 172° |
| 2026-05-04 00:31 | -37.66684 | 144.85081 | 409 ft | 7 kts | 172° |
| 2026-05-04 00:31 | -37.66736 | 144.85089 | 410 ft | 7 kts | 175° |
| 2026-05-04 00:31 | -37.66782 | 144.85088 | 410 ft | 5 kts | 182° |
| 2026-05-04 00:31 | -37.66811 | 144.85076 | 410 ft | 3 kts | 221° |
| 2026-05-04 00:32 | -37.66825 | 144.85044 | 409 ft | 4 kts | 253° |
| 2026-05-04 00:32 | -37.66828 | 144.85025 | 409 ft | 0 kts | 259° |